Time;durP1;ratioP1;P1;durP2;ratioP2;P2;SDS_P1;SDS_P2;PMS_P1;PMS_P2;Temp;Humidity;BMP_temperature;BMP_pressure;BME280_temperature;BME280_humidity;BME280_pressure;Samples;Min_cycle;Max_cycle;Signal;HPM_P1;HPM_P2
2022/04/12 00:00:10;;;;;;;6.82;2.90;;;;;;;;;;5056079;28;20435;-80
2022/04/12 00:02:39;;;;;;;5.30;2.88;;;;;;;;;;5056319;28;20048;-80
2022/04/12 00:05:04;;;;;;;6.97;2.70;;;;;;;;;;5055757;28;20044;-80
2022/04/12 00:07:29;;;;;;;3.63;2.40;;;;;;;;;;5056628;28;20107;-80
2022/04/12 00:09:54;;;;;;;4.60;2.00;;;;;;;;;;5056455;28;20469;-79
2022/04/12 00:12:20;;;;;;;3.13;1.73;;;;;;;;;;5054865;28;20033;-80
2022/04/12 00:14:45;;;;;;;3.17;1.98;;;;;;;;;;5055331;28;20037;-79
2022/04/12 00:19:55;;;;;;;3.33;2.10;;;;;;;;;;5055699;28;20044;-80
2022/04/12 00:22:20;;;;;;;5.07;2.03;;;;;;;;;;5056005;28;20025;-80
2022/04/12 00:24:46;;;;;;;3.30;2.10;;;;;;;;;;5054784;28;20086;-80
2022/04/12 00:27:11;;;;;;;3.25;1.88;;;;;;;;;;5054692;28;20086;-80
2022/04/12 00:29:36;;;;;;;3.28;2.05;;;;;;;;;;5054835;28;20033;-80
2022/04/12 00:32:01;;;;;;;3.33;1.88;;;;;;;;;;5055696;28;20032;-80
2022/04/12 00:34:27;;;;;;;4.00;1.92;;;;;;;;;;5055352;28;20092;-80
2022/04/12 00:36:52;;;;;;;2.90;1.90;;;;;;;;;;5059581;28;20503;-79
2022/04/12 00:39:17;;;;;;;3.53;1.90;;;;;;;;;;5059144;28;20401;-79
2022/04/12 00:41:43;;;;;;;2.92;1.85;;;;;;;;;;5056220;28;20040;-79
2022/04/12 00:44:08;;;;;;;2.78;1.90;;;;;;;;;;5057154;28;20041;-79
2022/04/12 00:46:33;;;;;;;3.65;2.28;;;;;;;;;;5055699;28;20049;-80
2022/04/12 00:48:58;;;;;;;3.58;2.05;;;;;;;;;;5054155;28;20095;-79
2022/04/12 00:51:24;;;;;;;5.97;2.85;;;;;;;;;;5055015;28;20029;-80
2022/04/12 00:53:49;;;;;;;5.13;2.63;;;;;;;;;;5055808;28;20029;-79
2022/04/12 00:56:15;;;;;;;8.73;3.80;;;;;;;;;;5055345;28;20063;-80
2022/04/12 00:58:44;;;;;;;7.80;3.13;;;;;;;;;;5056028;28;20048;-79
2022/04/12 01:01:10;;;;;;;7.30;2.88;;;;;;;;;;5054756;28;20044;-80
2022/04/12 01:03:35;;;;;;;4.53;2.58;;;;;;;;;;5054660;28;20393;-80
2022/04/12 01:06:00;;;;;;;4.50;2.45;;;;;;;;;;5054509;28;20064;-79
2022/04/12 01:08:25;;;;;;;3.97;2.50;;;;;;;;;;5059441;28;20471;-79
2022/04/12 01:10:52;;;;;;;3.70;2.30;;;;;;;;;;5058082;28;20028;-79
2022/04/12 01:13:18;;;;;;;3.65;2.28;;;;;;;;;;5058090;28;20485;-79
2022/04/12 01:15:43;;;;;;;3.75;2.42;;;;;;;;;;5058558;28;20083;-79
2022/04/12 01:18:08;;;;;;;3.85;2.30;;;;;;;;;;5058220;28;20482;-80
2022/04/12 01:20:34;;;;;;;7.65;2.55;;;;;;;;;;5059319;28;20032;-80
2022/04/12 01:22:59;;;;;;;7.00;2.50;;;;;;;;;;5058760;28;20036;-79
2022/04/12 01:25:24;;;;;;;4.45;2.40;;;;;;;;;;5058284;28;20112;-79
2022/04/12 01:27:49;;;;;;;3.33;2.30;;;;;;;;;;5057674;28;20425;-79
2022/04/12 01:30:15;;;;;;;3.13;2.20;;;;;;;;;;5057647;28;20029;-79
2022/04/12 01:32:40;;;;;;;3.53;2.25;;;;;;;;;;5058428;28;20060;-80
2022/04/12 01:35:05;;;;;;;4.55;2.15;;;;;;;;;;5058081;28;20045;-80
2022/04/12 01:37:30;;;;;;;3.47;2.10;;;;;;;;;;5056823;28;20041;-79
2022/04/12 01:39:56;;;;;;;2.55;1.60;;;;;;;;;;5058262;28;20029;-79
2022/04/12 01:42:21;;;;;;;3.67;2.00;;;;;;;;;;5057249;28;20067;-79
2022/04/12 01:44:46;;;;;;;4.28;2.20;;;;;;;;;;5057400;28;20068;-79
2022/04/12 01:47:12;;;;;;;4.65;2.05;;;;;;;;;;5057707;28;20043;-80
2022/04/12 01:49:37;;;;;;;2.72;1.98;;;;;;;;;;5058596;28;20029;-79
2022/04/12 01:52:02;;;;;;;4.45;2.67;;;;;;;;;;5058737;28;20044;-80
2022/04/12 01:54:28;;;;;;;3.17;2.20;;;;;;;;;;5056843;28;20032;-79
2022/04/12 01:56:53;;;;;;;3.90;2.20;;;;;;;;;;5056970;28;20047;-79
2022/04/12 01:59:18;;;;;;;3.03;2.15;;;;;;;;;;5056974;28;20505;-80
2022/04/12 02:01:43;;;;;;;2.88;2.10;;;;;;;;;;5057173;28;20033;-79
2022/04/12 02:04:09;;;;;;;4.57;2.13;;;;;;;;;;5057219;28;20044;-79
2022/04/12 02:06:34;;;;;;;3.60;2.00;;;;;;;;;;5040053;28;20453;-80
2022/04/12 02:09:00;;;;;;;3.65;2.22;;;;;;;;;;5055927;28;20029;-79
2022/04/12 02:11:25;;;;;;;3.97;2.28;;;;;;;;;;5056475;28;20477;-79
2022/04/12 02:13:51;;;;;;;5.13;2.15;;;;;;;;;;5058012;28;20040;-80
2022/04/12 02:16:17;;;;;;;4.85;2.90;;;;;;;;;;5056876;28;20040;-79
2022/04/12 02:18:43;;;;;;;11.57;5.47;;;;;;;;;;5038715;28;20511;-79
2022/04/12 02:21:08;;;;;;;6.35;3.40;;;;;;;;;;5055956;28;20088;-81
2022/04/12 02:23:33;;;;;;;4.60;2.38;;;;;;;;;;5054321;28;20432;-80
2022/04/12 02:25:58;;;;;;;4.88;2.13;;;;;;;;;;5054889;28;20112;-80
2022/04/12 02:28:24;;;;;;;3.65;2.22;;;;;;;;;;5056553;28;20554;-81
2022/04/12 02:30:49;;;;;;;4.53;2.10;;;;;;;;;;5055437;28;20447;-81
2022/04/12 02:33:14;;;;;;;3.55;1.88;;;;;;;;;;5054288;28;20040;-80
2022/04/12 02:35:39;;;;;;;3.55;1.90;;;;;;;;;;5054881;28;20037;-80
2022/04/12 02:38:05;;;;;;;2.90;2.00;;;;;;;;;;5054174;28;20439;-80
2022/04/12 02:40:30;;;;;;;6.18;2.88;;;;;;;;;;5055544;28;20029;-80
2022/04/12 02:42:56;;;;;;;3.50;2.40;;;;;;;;;;5055591;28;20050;-79
2022/04/12 02:45:21;;;;;;;4.13;2.08;;;;;;;;;;5055535;28;20056;-79
2022/04/12 02:47:46;;;;;;;3.40;2.20;;;;;;;;;;5056807;28;20389;-79
2022/04/12 02:50:11;;;;;;;3.22;2.00;;;;;;;;;;5055247;28;20029;-80
2022/04/12 02:52:37;;;;;;;3.10;2.03;;;;;;;;;;5054805;28;20029;-80
2022/04/12 02:55:02;;;;;;;3.80;1.98;;;;;;;;;;5054829;28;20032;-80
2022/04/12 02:57:27;;;;;;;2.80;2.00;;;;;;;;;;5055985;28;20029;-79
2022/04/12 02:59:52;;;;;;;4.13;2.03;;;;;;;;;;5055061;28;20079;-79
2022/04/12 03:02:18;;;;;;;3.38;2.08;;;;;;;;;;5055112;28;20028;-79
2022/04/12 03:04:43;;;;;;;3.25;2.00;;;;;;;;;;5055805;28;20037;-79
2022/04/12 03:07:11;;;;;;;3.13;1.85;;;;;;;;;;5055050;28;20465;-81
2022/04/12 03:09:36;;;;;;;4.53;1.98;;;;;;;;;;5053457;28;20045;-80
2022/04/12 03:12:02;;;;;;;2.90;1.63;;;;;;;;;;5054843;28;20029;-81
2022/04/12 03:14:27;;;;;;;2.47;1.80;;;;;;;;;;5053845;28;20036;-81
2022/04/12 03:16:53;;;;;;;2.85;1.85;;;;;;;;;;5055030;28;20032;-80
2022/04/12 03:19:18;;;;;;;3.67;1.98;;;;;;;;;;5054654;28;20039;-81
2022/04/12 03:21:44;;;;;;;3.58;2.00;;;;;;;;;;5053274;28;20029;-81
2022/04/12 03:24:09;;;;;;;3.70;1.95;;;;;;;;;;5054192;28;20555;-80
2022/04/12 03:26:34;;;;;;;2.80;1.90;;;;;;;;;;5052088;28;20400;-80
2022/04/12 03:28:59;;;;;;;4.22;2.17;;;;;;;;;;5053045;28;20127;-80
2022/04/12 03:31:24;;;;;;;3.13;1.80;;;;;;;;;;5052815;28;20033;-80
2022/04/12 03:33:50;;;;;;;6.22;2.22;;;;;;;;;;5052315;28;20059;-79
2022/04/12 03:36:15;;;;;;;3.95;2.10;;;;;;;;;;5052972;28;20512;-80
2022/04/12 03:38:48;;;;;;;3.60;2.42;;;;;;;;;;5053677;28;20029;-80
2022/04/12 03:41:13;;;;;;;4.45;2.35;;;;;;;;;;5052573;28;20054;-81
2022/04/12 03:43:38;;;;;;;3.42;2.28;;;;;;;;;;5052735;28;20533;-80
2022/04/12 03:46:04;;;;;;;5.60;2.22;;;;;;;;;;5051144;28;20053;-80
2022/04/12 03:48:29;;;;;;;3.80;2.17;;;;;;;;;;5053791;28;20100;-80
2022/04/12 03:50:54;;;;;;;4.13;2.40;;;;;;;;;;5052860;28;20489;-80
2022/04/12 03:53:19;;;;;;;4.63;2.67;;;;;;;;;;5052782;28;20082;-81
2022/04/12 03:55:46;;;;;;;4.68;2.80;;;;;;;;;;5053125;28;20124;-81
2022/04/12 03:58:11;;;;;;;3.25;2.13;;;;;;;;;;5053933;28;20032;-81
2022/04/12 04:00:37;;;;;;;3.67;1.92;;;;;;;;;;5053940;28;20458;-81
2022/04/12 04:03:02;;;;;;;3.53;1.60;;;;;;;;;;5054257;28;20025;-81
2022/04/12 04:05:27;;;;;;;2.72;1.98;;;;;;;;;;5052625;28;20036;-81
2022/04/12 04:07:52;;;;;;;3.33;2.00;;;;;;;;;;5053767;28;20392;-81
2022/04/12 04:10:18;;;;;;;2.85;1.88;;;;;;;;;;5053790;28;20052;-80
2022/04/12 04:12:43;;;;;;;2.90;2.03;;;;;;;;;;5052311;28;20037;-81
2022/04/12 04:15:12;;;;;;;2.70;2.00;;;;;;;;;;5053102;28;20044;-81
2022/04/12 04:17:37;;;;;;;4.93;2.10;;;;;;;;;;5053682;28;20025;-81
2022/04/12 04:20:02;;;;;;;3.22;2.13;;;;;;;;;;5053575;28;20063;-81
2022/04/12 04:22:27;;;;;;;2.60;1.90;;;;;;;;;;5052177;28;20075;-81
2022/04/12 04:24:53;;;;;;;3.65;2.08;;;;;;;;;;5052825;28;20033;-80
2022/04/12 04:27:18;;;;;;;3.25;2.30;;;;;;;;;;5053657;28;20434;-81
2022/04/12 04:29:43;;;;;;;3.30;1.90;;;;;;;;;;5051971;28;20087;-81
2022/04/12 04:32:08;;;;;;;4.72;2.10;;;;;;;;;;5053825;28;20036;-81
2022/04/12 04:34:34;;;;;;;4.40;2.30;;;;;;;;;;5052855;28;20520;-81
2022/04/12 04:36:59;;;;;;;3.65;2.10;;;;;;;;;;5052991;28;20033;-81
2022/04/12 04:39:24;;;;;;;3.58;2.25;;;;;;;;;;5053400;28;20082;-80
2022/04/12 04:41:49;;;;;;;5.40;3.08;;;;;;;;;;5055773;28;20040;-81
2022/04/12 04:44:15;;;;;;;3.83;2.22;;;;;;;;;;5056843;28;20086;-81
2022/04/12 04:46:40;;;;;;;4.20;2.58;;;;;;;;;;5057081;28;20485;-81
2022/04/12 04:49:05;;;;;;;5.05;2.22;;;;;;;;;;5039792;28;20120;-81
2022/04/12 04:51:31;;;;;;;3.05;1.90;;;;;;;;;;5056308;28;20492;-80
2022/04/12 04:53:58;;;;;;;4.07;2.30;;;;;;;;;;5055247;28;20404;-80
2022/04/12 04:56:23;;;;;;;8.07;2.40;;;;;;;;;;5056638;28;20033;-81
2022/04/12 04:58:48;;;;;;;14.07;7.28;;;;;;;;;;5055274;28;20113;-80
2022/04/12 05:01:14;;;;;;;17.65;9.25;;;;;;;;;;5054133;28;20036;-80
2022/04/12 05:03:39;;;;;;;18.17;9.05;;;;;;;;;;5055403;28;20033;-80
2022/04/12 05:06:04;;;;;;;13.50;7.78;;;;;;;;;;5056238;28;20060;-81
2022/04/12 05:08:29;;;;;;;17.17;9.68;;;;;;;;;;5056157;28;20481;-80
2022/04/12 05:10:55;;;;;;;10.90;6.32;;;;;;;;;;5056135;28;20378;-80
2022/04/12 05:13:20;;;;;;;8.07;3.92;;;;;;;;;;5056130;28;20179;-81
2022/04/12 05:15:45;;;;;;;7.43;4.20;;;;;;;;;;5055285;28;20041;-81
2022/04/12 05:18:10;;;;;;;11.50;5.03;;;;;;;;;;5055325;28;20060;-79
2022/04/12 05:20:36;;;;;;;6.60;3.78;;;;;;;;;;5056289;28;20029;-81
2022/04/12 05:23:01;;;;;;;26.17;16.35;;;;;;;;;;5055258;28;20123;-81
2022/04/12 05:25:26;;;;;;;11.52;6.80;;;;;;;;;;5053842;28;20094;-81
2022/04/12 05:27:51;;;;;;;8.13;4.35;;;;;;;;;;5054664;28;20032;-80
2022/04/12 05:30:17;;;;;;;7.75;4.72;;;;;;;;;;5054546;28;20440;-81
2022/04/12 05:32:42;;;;;;;7.53;3.22;;;;;;;;;;5055941;28;20132;-81
2022/04/12 05:35:07;;;;;;;7.07;3.58;;;;;;;;;;5054248;28;20119;-81
2022/04/12 05:37:33;;;;;;;3.70;2.70;;;;;;;;;;5056278;28;20481;-80
2022/04/12 05:39:58;;;;;;;3.55;2.47;;;;;;;;;;5055630;28;20028;-80
2022/04/12 05:42:23;;;;;;;8.27;3.80;;;;;;;;;;5053755;28;20040;-81
2022/04/12 05:44:49;;;;;;;4.63;2.65;;;;;;;;;;5036788;28;20103;-80
2022/04/12 05:47:14;;;;;;;5.03;2.25;;;;;;;;;;5055245;28;20072;-80
2022/04/12 05:49:39;;;;;;;3.20;1.88;;;;;;;;;;5055316;28;20029;-80
2022/04/12 05:52:05;;;;;;;4.70;2.05;;;;;;;;;;5055285;28;20036;-80
2022/04/12 05:54:30;;;;;;;4.38;1.70;;;;;;;;;;5053642;28;20112;-80
2022/04/12 05:56:55;;;;;;;12.48;7.90;;;;;;;;;;5054121;28;20051;-80
2022/04/12 05:59:22;;;;;;;12.52;7.55;;;;;;;;;;5054488;28;20615;-80
2022/04/12 06:01:48;;;;;;;7.50;3.60;;;;;;;;;;5036384;28;20064;-80
2022/04/12 06:04:13;;;;;;;9.55;3.30;;;;;;;;;;5052271;28;20110;-80
2022/04/12 06:06:41;;;;;;;9.98;4.07;;;;;;;;;;5054588;28;20025;-80
2022/04/12 06:09:06;;;;;;;24.33;9.73;;;;;;;;;;5054953;28;20044;-80
2022/04/12 06:11:31;;;;;;;12.02;4.57;;;;;;;;;;5053095;28;20028;-80
2022/04/12 06:13:58;;;;;;;9.38;3.88;;;;;;;;;;5055405;28;20420;-80
2022/04/12 06:16:23;;;;;;;11.82;5.75;;;;;;;;;;5053939;28;20095;-80
2022/04/12 06:18:48;;;;;;;11.48;3.15;;;;;;;;;;5053791;28;20029;-79
2022/04/12 06:21:14;;;;;;;6.95;3.30;;;;;;;;;;5052919;28;20072;-80
2022/04/12 06:23:39;;;;;;;27.45;10.00;;;;;;;;;;5054288;28;20033;-80
2022/04/12 06:26:04;;;;;;;19.10;7.30;;;;;;;;;;5055663;28;20529;-80
2022/04/12 06:28:30;;;;;;;5.97;2.67;;;;;;;;;;5055076;28;20508;-80
2022/04/12 06:30:57;;;;;;;6.68;3.92;;;;;;;;;;5056140;28;20409;-80
2022/04/12 06:33:23;;;;;;;3.17;1.95;;;;;;;;;;5056459;28;20043;-81
2022/04/12 06:35:48;;;;;;;4.07;2.53;;;;;;;;;;5054325;28;20037;-80
2022/04/12 06:38:13;;;;;;;7.18;3.70;;;;;;;;;;5055958;28;20032;-81
2022/04/12 06:40:39;;;;;;;4.70;1.67;;;;;;;;;;5056942;28;20516;-80
2022/04/12 06:43:04;;;;;;;4.70;1.50;;;;;;;;;;5052761;28;20040;-80
2022/04/12 06:45:30;;;;;;;2.20;1.40;;;;;;;;;;5054061;28;20086;-81
2022/04/12 06:47:55;;;;;;;2.95;1.52;;;;;;;;;;5053765;28;20033;-80
2022/04/12 06:50:20;;;;;;;2.72;1.40;;;;;;;;;;5052541;28;20037;-80
2022/04/12 06:52:45;;;;;;;3.03;1.70;;;;;;;;;;5053890;28;20401;-80
2022/04/12 06:55:11;;;;;;;4.70;1.67;;;;;;;;;;5052186;28;20139;-80
2022/04/12 06:57:36;;;;;;;4.32;1.52;;;;;;;;;;5052626;28;20040;-80
2022/04/12 07:00:01;;;;;;;2.78;1.60;;;;;;;;;;5054456;28;20041;-80
2022/04/12 07:02:27;;;;;;;4.75;2.30;;;;;;;;;;5035870;28;20090;-80
2022/04/12 07:04:52;;;;;;;4.30;1.90;;;;;;;;;;5053149;28;20033;-80
2022/04/12 07:07:17;;;;;;;2.53;1.60;;;;;;;;;;5054180;28;20208;-81
2022/04/12 07:09:42;;;;;;;4.55;1.42;;;;;;;;;;5053937;28;20112;-81
2022/04/12 07:12:07;;;;;;;3.22;1.80;;;;;;;;;;5054040;28;20044;-81
2022/04/12 07:14:33;;;;;;;3.20;2.00;;;;;;;;;;5053731;28;20401;-80
2022/04/12 07:16:59;;;;;;;2.55;1.60;;;;;;;;;;5054337;28;20036;-79
2022/04/12 07:19:24;;;;;;;2.65;0.95;;;;;;;;;;5052326;28;20404;-80
2022/04/12 07:21:49;;;;;;;1.95;0.90;;;;;;;;;;5053014;28;20033;-80
2022/04/12 07:24:15;;;;;;;1.88;1.10;;;;;;;;;;5052228;28;20036;-81
2022/04/12 07:26:40;;;;;;;2.35;1.02;;;;;;;;;;5054503;28;20060;-80
2022/04/12 07:29:05;;;;;;;3.92;1.33;;;;;;;;;;5054334;28;20107;-81
2022/04/12 07:31:31;;;;;;;2.88;1.60;;;;;;;;;;5055217;28;20492;-81
2022/04/12 07:33:56;;;;;;;2.35;1.40;;;;;;;;;;5036196;28;20042;-80
2022/04/12 07:36:21;;;;;;;2.13;1.00;;;;;;;;;;5055075;28;20416;-80
2022/04/12 07:38:48;;;;;;;2.45;1.13;;;;;;;;;;5054028;28;20037;-81
2022/04/12 07:41:14;;;;;;;2.22;1.08;;;;;;;;;;5054712;28;20124;-80
2022/04/12 07:43:39;;;;;;;2.60;0.98;;;;;;;;;;5055524;28;20052;-80
2022/04/12 07:46:04;;;;;;;1.92;1.02;;;;;;;;;;5053922;28;20033;-80
2022/04/12 07:48:30;;;;;;;3.03;1.20;;;;;;;;;;5056461;28;20075;-81
2022/04/12 07:50:55;;;;;;;2.30;1.20;;;;;;;;;;5055460;28;20033;-80
2022/04/12 07:53:20;;;;;;;1.88;1.00;;;;;;;;;;5055172;28;20523;-80
2022/04/12 07:55:45;;;;;;;4.30;1.40;;;;;;;;;;5053362;28;20044;-81
2022/04/12 07:58:10;;;;;;;1.80;0.90;;;;;;;;;;5054508;28;20082;-80
2022/04/12 08:00:36;;;;;;;1.20;0.80;;;;;;;;;;5054683;28;20104;-80
2022/04/12 08:03:01;;;;;;;2.72;1.10;;;;;;;;;;5052999;28;20446;-81
2022/04/12 08:05:26;;;;;;;1.83;1.10;;;;;;;;;;5054605;28;20049;-80
2022/04/12 08:07:51;;;;;;;2.05;0.90;;;;;;;;;;5055000;28;20115;-80
2022/04/12 08:10:17;;;;;;;1.50;1.00;;;;;;;;;;5054475;28;20037;-80
2022/04/12 08:12:42;;;;;;;5.05;1.08;;;;;;;;;;5053839;28;20071;-81
2022/04/12 08:15:07;;;;;;;4.13;1.10;;;;;;;;;;5036490;28;20041;-80
2022/04/12 08:17:32;;;;;;;1.95;0.98;;;;;;;;;;5058797;28;20473;-80
2022/04/12 08:19:58;;;;;;;2.67;1.20;;;;;;;;;;5057982;28;20032;-80
2022/04/12 08:22:24;;;;;;;4.00;1.00;;;;;;;;;;5057582;28;20065;-80
2022/04/12 08:24:49;;;;;;;5.55;1.20;;;;;;;;;;5039722;28;20044;-80
2022/04/12 08:27:15;;;;;;;4.60;1.27;;;;;;;;;;5058823;28;20049;-80
2022/04/12 08:29:40;;;;;;;2.15;1.08;;;;;;;;;;5084514;22;20468;-85
2022/04/12 08:32:05;;;;;;;1.85;1.13;;;;;;;;;;5039361;28;20476;-83
2022/04/12 08:34:30;;;;;;;3.55;1.15;;;;;;;;;;5056592;28;20041;-85
2022/04/12 08:36:55;;;;;;;2.10;1.20;;;;;;;;;;5056568;28;20032;-85
2022/04/12 08:39:21;;;;;;;3.17;1.38;;;;;;;;;;5056049;28;20116;-84
2022/04/12 08:41:46;;;;;;;5.07;1.20;;;;;;;;;;5056221;28;20037;-84
2022/04/12 08:44:11;;;;;;;2.42;1.42;;;;;;;;;;5046037;28;20021;-85
2022/04/12 08:46:37;;;;;;;3.20;1.50;;;;;;;;;;5058688;28;20075;-85
2022/04/12 08:49:02;;;;;;;3.40;1.17;;;;;;;;;;5058855;28;20094;-84
2022/04/12 08:51:28;;;;;;;2.50;1.10;;;;;;;;;;5058386;28;20032;-84
2022/04/12 08:53:54;;;;;;;2.25;1.10;;;;;;;;;;5056749;28;20036;-84
2022/04/12 08:56:19;;;;;;;1.65;1.02;;;;;;;;;;5058793;28;20029;-82
2022/04/12 08:58:44;;;;;;;4.00;1.00;;;;;;;;;;5060936;28;20532;-85
2022/04/12 09:01:09;;;;;;;2.60;1.00;;;;;;;;;;5043218;28;20041;-85
2022/04/12 09:03:35;;;;;;;6.07;1.13;;;;;;;;;;5059682;28;20040;-85
2022/04/12 09:06:00;;;;;;;2.15;1.20;;;;;;;;;;5058340;28;20044;-85
2022/04/12 09:08:25;;;;;;;2.58;1.10;;;;;;;;;;5056132;28;20103;-84
2022/04/12 09:10:51;;;;;;;2.67;1.10;;;;;;;;;;5056150;28;20037;-83
2022/04/12 09:13:16;;;;;;;2.63;1.08;;;;;;;;;;5056624;28;20037;-82
2022/04/12 09:15:41;;;;;;;1.50;1.00;;;;;;;;;;5054167;28;20457;-85
2022/04/12 09:18:06;;;;;;;1.70;1.05;;;;;;;;;;5039181;28;20037;-85
2022/04/12 09:20:31;;;;;;;3.15;1.05;;;;;;;;;;5056325;28;20037;-86
2022/04/12 09:22:57;;;;;;;2.85;0.98;;;;;;;;;;5057348;28;20212;-85
2022/04/12 09:25:22;;;;;;;4.20;1.10;;;;;;;;;;5056837;28;20080;-83
2022/04/12 09:27:49;;;;;;;1.77;0.95;;;;;;;;;;5057606;28;20055;-84
2022/04/12 09:30:15;;;;;;;1.02;0.85;;;;;;;;;;5057554;28;20036;-83
2022/04/12 09:32:40;;;;;;;2.10;1.02;;;;;;;;;;5056852;28;20117;-84
2022/04/12 09:35:06;;;;;;;3.25;1.20;;;;;;;;;;5038239;28;20032;-84
2022/04/12 09:37:31;;;;;;;2.67;1.20;;;;;;;;;;5040017;28;20469;-84
2022/04/12 09:39:56;;;;;;;1.85;1.10;;;;;;;;;;5055403;28;20036;-85
2022/04/12 09:42:21;;;;;;;2.33;1.17;;;;;;;;;;5057214;28;20041;-84
2022/04/12 09:44:47;;;;;;;6.60;1.23;;;;;;;;;;5054246;28;20032;-84
2022/04/12 09:47:12;;;;;;;5.45;1.15;;;;;;;;;;5056007;28;20052;-85
2022/04/12 09:49:37;;;;;;;4.03;1.30;;;;;;;;;;5056056;28;20105;-83
2022/04/12 09:52:02;;;;;;;2.28;1.40;;;;;;;;;;5066048;28;20421;-86
2022/04/12 09:54:27;;;;;;;3.03;1.40;;;;;;;;;;5058713;28;20037;-85
2022/04/12 09:56:53;;;;;;;2.63;1.42;;;;;;;;;;5059600;28;20021;-86
2022/04/12 09:59:18;;;;;;;5.75;1.50;;;;;;;;;;5040864;28;20492;-86
2022/04/12 10:01:44;;;;;;;2.25;1.40;;;;;;;;;;5058914;28;20461;-85
2022/04/12 10:04:09;;;;;;;4.78;1.60;;;;;;;;;;5056432;28;20072;-85
2022/04/12 10:06:34;;;;;;;4.65;1.73;;;;;;;;;;5057884;28;20036;-86
2022/04/12 10:08:59;;;;;;;7.00;1.50;;;;;;;;;;5056576;28;20040;-86
2022/04/12 10:11:25;;;;;;;3.28;1.33;;;;;;;;;;5056714;28;20029;-86
2022/04/12 10:13:50;;;;;;;3.28;1.50;;;;;;;;;;5058139;28;20037;-84
2022/04/12 10:16:15;;;;;;;2.65;1.30;;;;;;;;;;5057944;28;20040;-86
2022/04/12 10:18:40;;;;;;;5.75;1.40;;;;;;;;;;5056195;28;20033;-85
2022/04/12 10:21:06;;;;;;;3.67;1.40;;;;;;;;;;5057171;28;20389;-86
2022/04/12 10:23:31;;;;;;;2.15;1.40;;;;;;;;;;5056328;28;20805;-85
2022/04/12 10:25:56;;;;;;;4.35;1.40;;;;;;;;;;5056263;28;20044;-83
2022/04/12 10:28:21;;;;;;;2.97;1.23;;;;;;;;;;5055930;28;20090;-86
2022/04/12 10:30:47;;;;;;;2.00;1.25;;;;;;;;;;5056292;28;20722;-85
2022/04/12 10:33:12;;;;;;;2.45;1.10;;;;;;;;;;5038351;28;20056;-86
2022/04/12 10:35:37;;;;;;;2.53;1.20;;;;;;;;;;5054836;28;20492;-86
2022/04/12 10:38:02;;;;;;;2.00;1.20;;;;;;;;;;5055431;28;20029;-85
2022/04/12 10:40:28;;;;;;;3.72;1.25;;;;;;;;;;5055367;28;20039;-85
2022/04/12 10:42:53;;;;;;;3.42;1.27;;;;;;;;;;5037480;28;20167;-85
2022/04/12 10:45:18;;;;;;;3.20;1.40;;;;;;;;;;5055004;28;20594;-85
2022/04/12 10:47:43;;;;;;;3.85;1.30;;;;;;;;;;5053418;28;20055;-84
2022/04/12 10:50:10;;;;;;;1.40;1.20;;;;;;;;;;5052697;28;20120;-85
2022/04/12 10:52:35;;;;;;;2.72;1.52;;;;;;;;;;5054681;28;20029;-84
2022/04/12 10:55:00;;;;;;;3.55;1.65;;;;;;;;;;5053799;28;20544;-85
2022/04/12 10:57:26;;;;;;;4.35;1.63;;;;;;;;;;5055834;28;20032;-84
2022/04/12 10:59:52;;;;;;;3.33;1.60;;;;;;;;;;5062530;28;20071;-85
2022/04/12 11:02:17;;;;;;;3.88;1.60;;;;;;;;;;5056922;28;20039;-85
2022/04/12 11:04:42;;;;;;;4.35;1.80;;;;;;;;;;5055382;28;20032;-84
2022/04/12 11:07:08;;;;;;;4.47;1.65;;;;;;;;;;5056811;28;20033;-85
2022/04/12 11:09:33;;;;;;;2.53;1.70;;;;;;;;;;5054005;28;20493;-86
2022/04/12 11:12:01;;;;;;;4.10;1.77;;;;;;;;;;5053986;28;20036;-85
2022/04/12 11:14:32;;;;;;;4.22;1.88;;;;;;;;;;5054655;28;20033;-84
2022/04/12 11:16:57;;;;;;;2.78;1.70;;;;;;;;;;5054007;28;20037;-84
2022/04/12 11:19:23;;;;;;;5.10;1.90;;;;;;;;;;5054845;28;20098;-85
2022/04/12 11:21:48;;;;;;;4.63;1.75;;;;;;;;;;5055307;28;20488;-84
2022/04/12 11:24:13;;;;;;;4.32;2.00;;;;;;;;;;5052851;28;20037;-84
2022/04/12 11:26:40;;;;;;;2.72;1.70;;;;;;;;;;5055182;28;20033;-86
2022/04/12 11:29:05;;;;;;;3.70;1.90;;;;;;;;;;5053020;28;20493;-84
2022/04/12 11:31:31;;;;;;;2.92;1.80;;;;;;;;;;5038289;28;20070;-85
2022/04/12 11:33:56;;;;;;;5.30;1.60;;;;;;;;;;5056028;28;20036;-87
2022/04/12 11:36:21;;;;;;;6.95;2.10;;;;;;;;;;5054180;28;20298;-86
2022/04/12 11:38:46;;;;;;;4.35;1.70;;;;;;;;;;5055000;28;20065;-87
2022/04/12 11:41:12;;;;;;;4.03;1.80;;;;;;;;;;5055101;28;20033;-87
2022/04/12 11:43:37;;;;;;;3.53;1.98;;;;;;;;;;5054133;28;20396;-87
2022/04/12 11:46:02;;;;;;;4.60;1.90;;;;;;;;;;5053566;28;20124;-85
2022/04/12 11:48:27;;;;;;;4.43;1.90;;;;;;;;;;5054477;28;20040;-86
2022/04/12 11:50:53;;;;;;;4.05;1.75;;;;;;;;;;5053672;28;20473;-84
2022/04/12 11:53:18;;;;;;;2.95;1.75;;;;;;;;;;5036703;28;20052;-86
2022/04/12 11:55:43;;;;;;;3.22;1.52;;;;;;;;;;5052918;28;20037;-85
2022/04/12 11:58:08;;;;;;;2.70;1.60;;;;;;;;;;5054284;28;20065;-84
2022/04/12 12:00:34;;;;;;;2.78;1.75;;;;;;;;;;5054132;28;20064;-84
2022/04/12 12:02:59;;;;;;;4.53;1.70;;;;;;;;;;5052471;28;20057;-85
2022/04/12 12:05:24;;;;;;;4.47;1.50;;;;;;;;;;5057783;28;20048;-86
2022/04/12 12:07:50;;;;;;;3.28;1.58;;;;;;;;;;5054286;28;20040;-86
2022/04/12 12:10:15;;;;;;;4.53;1.60;;;;;;;;;;5051953;28;20516;-85
2022/04/12 12:12:40;;;;;;;2.80;1.40;;;;;;;;;;5052785;28;20131;-85
2022/04/12 12:15:05;;;;;;;6.22;1.50;;;;;;;;;;5051327;28;20392;-85
2022/04/12 12:17:31;;;;;;;2.00;1.40;;;;;;;;;;5035727;28;20082;-84
2022/04/12 12:19:56;;;;;;;3.42;1.30;;;;;;;;;;5053227;28;20507;-85
2022/04/12 12:22:22;;;;;;;2.20;1.30;;;;;;;;;;5051934;28;20078;-85
2022/04/12 12:24:48;;;;;;;3.58;1.50;;;;;;;;;;5053007;28;20108;-85
2022/04/12 12:27:13;;;;;;;3.15;1.27;;;;;;;;;;5051997;28;20053;-86
2022/04/12 12:29:38;;;;;;;3.33;1.30;;;;;;;;;;5053546;28;20519;-86
2022/04/12 12:32:03;;;;;;;3.00;1.35;;;;;;;;;;5053855;28;20051;-86
2022/04/12 12:34:29;;;;;;;4.77;1.30;;;;;;;;;;5051764;28;20420;-85
2022/04/12 12:36:54;;;;;;;2.72;1.15;;;;;;;;;;5052684;28;20802;-85
2022/04/12 12:39:22;;;;;;;2.55;1.30;;;;;;;;;;5053113;28;20056;-86
2022/04/12 12:41:47;;;;;;;3.15;1.50;;;;;;;;;;5054345;28;20102;-86
2022/04/12 12:44:12;;;;;;;5.65;1.48;;;;;;;;;;5053002;28;20111;-84
2022/04/12 12:46:38;;;;;;;3.47;1.40;;;;;;;;;;5052001;28;20033;-87
2022/04/12 12:49:03;;;;;;;5.37;1.40;;;;;;;;;;5053861;28;20061;-86
2022/04/12 12:51:28;;;;;;;3.72;1.52;;;;;;;;;;5053891;28;20283;-86
2022/04/12 12:53:53;;;;;;;2.60;1.25;;;;;;;;;;5053253;28;20031;-84
2022/04/12 12:56:21;;;;;;;2.67;1.30;;;;;;;;;;5053924;28;20033;-85
2022/04/12 12:58:46;;;;;;;5.78;1.40;;;;;;;;;;5052905;28;20037;-86
2022/04/12 13:01:12;;;;;;;2.95;1.30;;;;;;;;;;5053433;28;20040;-86
2022/04/12 13:03:37;;;;;;;1.98;1.35;;;;;;;;;;5054567;28;20033;-85
2022/04/12 13:06:02;;;;;;;2.63;1.30;;;;;;;;;;5054189;28;20029;-85
2022/04/12 13:08:27;;;;;;;3.55;1.30;;;;;;;;;;5054355;28;20043;-84
2022/04/12 13:10:53;;;;;;;2.38;1.15;;;;;;;;;;5055877;28;20032;-84
2022/04/12 13:13:18;;;;;;;4.25;1.27;;;;;;;;;;5047149;28;20037;-85
2022/04/12 13:15:43;;;;;;;3.03;1.02;;;;;;;;;;5056010;28;20040;-85
2022/04/12 13:18:09;;;;;;;4.10;1.10;;;;;;;;;;5055433;28;20405;-84
2022/04/12 13:20:34;;;;;;;3.30;1.30;;;;;;;;;;5055482;28;20036;-84
2022/04/12 13:22:59;;;;;;;3.90;1.30;;;;;;;;;;5056517;28;20563;-84
2022/04/12 13:25:24;;;;;;;1.92;1.10;;;;;;;;;;5054057;28;20083;-85
2022/04/12 13:27:50;;;;;;;2.70;1.20;;;;;;;;;;5054904;28;20054;-85
2022/04/12 13:30:15;;;;;;;3.80;1.20;;;;;;;;;;5058799;28;20032;-85
2022/04/12 13:32:42;;;;;;;4.90;1.10;;;;;;;;;;5040106;28;20025;-87
2022/04/12 13:35:08;;;;;;;2.50;1.05;;;;;;;;;;5055950;28;20035;-87
2022/04/12 13:37:33;;;;;;;5.22;1.40;;;;;;;;;;5056121;28;20065;-85
2022/04/12 13:39:58;;;;;;;1.92;1.08;;;;;;;;;;5057028;28;20492;-87
2022/04/12 13:42:23;;;;;;;3.20;1.20;;;;;;;;;;5058017;28;20075;-86
2022/04/12 13:44:52;;;;;;;2.35;1.10;;;;;;;;;;5056946;28;20040;-86
2022/04/12 13:47:17;;;;;;;4.63;1.10;;;;;;;;;;5057986;28;20041;-85
2022/04/12 13:49:42;;;;;;;2.78;1.00;;;;;;;;;;5056312;28;20093;-86
2022/04/12 13:52:08;;;;;;;3.00;1.10;;;;;;;;;;5060660;28;20093;-85
2022/04/12 13:54:33;;;;;;;2.13;1.15;;;;;;;;;;5057023;28;20492;-85
2022/04/12 13:56:58;;;;;;;2.67;1.00;;;;;;;;;;5054990;28;20297;-85
2022/04/12 13:59:24;;;;;;;2.60;1.17;;;;;;;;;;5055558;28;20041;-84
2022/04/12 14:01:49;;;;;;;2.10;1.02;;;;;;;;;;5055769;28;20037;-86
2022/04/12 14:04:14;;;;;;;7.00;1.40;;;;;;;;;;5054328;28;20032;-85
2022/04/12 14:06:39;;;;;;;1.33;1.00;;;;;;;;;;5054095;28;20037;-84
2022/04/12 14:09:05;;;;;;;2.28;1.10;;;;;;;;;;5055153;28;20036;-84
2022/04/12 14:11:30;;;;;;;3.75;1.20;;;;;;;;;;5053769;28;20120;-84
2022/04/12 14:13:55;;;;;;;1.75;1.00;;;;;;;;;;5036392;28;20060;-82
2022/04/12 14:16:21;;;;;;;3.27;1.00;;;;;;;;;;5052542;28;20036;-85
2022/04/12 14:18:47;;;;;;;2.53;0.93;;;;;;;;;;5054605;28;20284;-85
2022/04/12 14:21:12;;;;;;;3.63;1.05;;;;;;;;;;5045209;28;20037;-87
2022/04/12 14:23:37;;;;;;;2.30;0.90;;;;;;;;;;5056596;28;20107;-87
2022/04/12 14:26:04;;;;;;;2.53;0.98;;;;;;;;;;5054581;28;20086;-85
2022/04/12 14:28:29;;;;;;;2.22;0.98;;;;;;;;;;5055269;28;20036;-85
2022/04/12 14:30:55;;;;;;;1.38;0.80;;;;;;;;;;5078729;22;20523;-83
2022/04/12 14:33:20;;;;;;;6.40;1.20;;;;;;;;;;5055260;28;20044;-83